Huvudsida
METAR-TAF:

METAR-TAF

Flygplatser :

Recifes internationella flygplats

Recife, Pernambuco, Brasilien

latitud: 08-08S, longitud: 034-55W, höjd: 19 m

Aktuellt väderrapport

Denna rapport gjordes för 19 minuter sedan, klockan 10:00 UTC
Vind 10 kt från syd/sydost
Temperatur 23°C
Fuktighet 89%
Tryck 1019 hPa
Sikt: 5000 m
Brutna moln på en höjd av 1000 ft
Brutna moln på en höjd av 4000 ft
lätt regn

METAR: SBRF 201000Z 16010KT 5000 -RA BKN010 BKN040 23/21 Q1019

Tid: 07:19 (10:19 UTC)

Väderprognos

Denna rapport gjordes för 9 timmar och 19 minuter sedan, klockan 01:00 UTC
Prognos gäller från 20 kl. 06 UTC till 21 kl. 06 UTC
Vind 11 kt från syd/sydost
Sikt: 9000 m
Spridda moln på en höjd av 2300 ft
Sannolikhet 30% :
Temporärt
från 20 kl. 06 UTC till 20 kl. 07 UTC
Sikt: 5000 m
Spridda moln på en höjd av 1200 ft
Brutna moln på en höjd av 1700 ft
regnskurar

TAF: SBRF 200100Z 2006/2106 15011KT 9000 SCT023 TN24/2008Z TX28/2015Z PROB30 TEMPO 2006/2007 5000 SHRA SCT012 BKN017 RMK PEI

Aktuella väderrapporter och prognoser från 4000 flygplatser (METAR- och TAF-rapporter).

De tillgängliga stationerna syns som gula och röda prickar på kartan.

För musen över prickarna för att se namnen på stationerna.

Klicka sedan för att få väderrapporter och prognoser.

För att ändra kartan: Klicka på de gröna knapparna med ett svart kors på för att zooma in; den gröna knappen med ett streck på för att zooma ut; eller på de gröna pilarna för angränsande kartor.


METAR-TAF: